createdAt,value
2018-12-08T00:00:55.808Z,78.49
2018-12-08T00:01:55.828Z,78.49
2018-12-08T00:02:55.848Z,78.01
2018-12-08T00:03:55.885Z,78.86
2018-12-08T00:04:55.869Z,79.35
2018-12-08T00:05:55.889Z,79.49
2018-12-08T00:06:55.909Z,80.20
2018-12-08T00:07:55.923Z,79.72
2018-12-08T00:08:55.942Z,79.53
2018-12-08T00:09:55.952Z,80.30
2018-12-08T00:10:55.974Z,81.12
2018-12-08T00:11:55.981Z,81.49
2018-12-08T00:12:56.016Z,81.63
2018-12-08T00:13:56.044Z,81.44
2018-12-08T00:14:56.036Z,81.73
2018-12-08T00:15:56.051Z,81.01
2018-12-08T00:16:56.120Z,80.49
2018-12-08T00:17:56.082Z,81.25
2018-12-08T00:18:56.098Z,80.20
2018-12-08T00:19:56.115Z,79.44
2018-12-08T00:20:56.133Z,79.53
2018-12-08T00:21:56.166Z,80.35
2018-12-08T00:22:56.171Z,80.83
2018-12-08T00:23:56.177Z,81.12
2018-12-08T00:24:56.191Z,79.91
2018-12-08T00:25:56.219Z,79.63
2018-12-08T00:26:56.229Z,79.06
2018-12-08T00:28:56.268Z,78.10
2018-12-08T00:29:56.276Z,79.68
2018-12-08T00:31:56.308Z,78.10
2018-12-08T00:32:56.321Z,78.86
2018-12-08T00:33:56.339Z,78.39
2018-12-08T00:34:56.359Z,78.39
2018-12-08T00:35:56.387Z,77.44
2018-12-08T00:36:56.386Z,77.72
2018-12-08T00:37:56.410Z,78.16
2018-12-08T00:38:56.415Z,77.62
2018-12-08T00:39:56.437Z,76.48
2018-12-08T00:40:56.462Z,77.34
2018-12-08T00:41:56.534Z,76.48
2018-12-08T00:42:56.479Z,76.20
2018-12-08T00:43:56.495Z,76.82
2018-12-08T00:44:56.620Z,76.57
2018-12-08T00:45:56.536Z,76.77
2018-12-08T00:46:56.613Z,75.53
2018-12-08T00:47:56.567Z,76.48
2018-12-08T00:48:56.575Z,76.29
2018-12-08T00:49:56.598Z,76.29
2018-12-08T00:50:56.611Z,74.77
2018-12-08T00:51:56.621Z,75.34
2018-12-08T00:52:56.638Z,75.43
2018-12-08T00:53:56.654Z,76.73
2018-12-08T00:54:56.679Z,76.67
2018-12-08T00:55:56.768Z,75.43
2018-12-08T00:56:56.701Z,74.29
2018-12-08T00:57:56.727Z,74.38
2018-12-08T00:58:56.738Z,74.38
2018-12-08T00:59:56.754Z,75.96
2018-12-08T01:00:56.762Z,76.01
2018-12-08T01:01:56.804Z,74.73
2018-12-08T01:02:56.801Z,75.24
2018-12-08T01:03:56.812Z,75.20
2018-12-08T01:04:56.829Z,75.30
2018-12-08T01:05:56.848Z,75.59
2018-12-08T01:06:56.923Z,75.30
2018-12-08T01:07:56.880Z,74.82
2018-12-08T01:08:56.899Z,74.77
2018-12-08T01:09:56.912Z,74.16
2018-12-08T01:10:56.925Z,74.19
2018-12-08T01:11:56.943Z,73.62
2018-12-08T01:12:57.033Z,73.14
2018-12-08T01:13:56.979Z,74.35
2018-12-08T01:14:56.994Z,74.73
2018-12-08T01:15:57.008Z,74.54
2018-12-08T01:16:57.019Z,74.82
2018-12-08T01:18:57.059Z,73.05
2018-12-08T01:19:57.075Z,73.33
2018-12-08T01:20:57.096Z,73.96
2018-12-08T01:21:57.117Z,74.73
2018-12-08T01:22:57.115Z,75.30
2018-12-08T01:24:18.140Z,75.30
2018-12-08T01:24:57.150Z,73.52
2018-12-08T01:25:57.163Z,72.67
2018-12-08T01:26:57.182Z,73.49
2018-12-08T01:27:57.195Z,74.92
2018-12-08T01:28:57.217Z,75.59
2018-12-08T01:29:57.236Z,74.98
2018-12-08T01:31:57.267Z,75.20
2018-12-08T01:32:57.270Z,75.36
2018-12-08T01:33:57.290Z,74.57
2018-12-08T01:34:57.301Z,73.14
2018-12-08T01:35:57.339Z,72.92
2018-12-08T01:36:57.338Z,72.00
2018-12-08T01:37:57.360Z,71.72
2018-12-08T01:38:57.371Z,72.76
2018-12-08T01:39:57.396Z,72.00
2018-12-08T01:40:57.438Z,73.14
2018-12-08T01:41:57.419Z,73.21
2018-12-08T01:42:57.442Z,74.54
2018-12-08T01:43:57.449Z,74.54
2018-12-08T01:44:57.462Z,74.44
2018-12-08T01:45:57.478Z,74.54
2018-12-08T01:46:57.497Z,73.21
2018-12-08T01:47:57.523Z,73.87
2018-12-08T01:48:57.544Z,74.25
2018-12-08T01:49:57.554Z,74.35
2018-12-08T01:50:57.557Z,73.49
2018-12-08T01:51:57.588Z,73.96
2018-12-08T01:52:57.589Z,73.58
2018-12-08T01:53:57.689Z,73.11
2018-12-08T01:54:57.624Z,73.49
2018-12-08T01:55:57.636Z,73.96
2018-12-08T01:56:57.660Z,74.06
2018-12-08T01:57:57.720Z,72.76
2018-12-08T01:58:57.682Z,72.67
2018-12-08T01:59:57.708Z,72.48
2018-12-08T02:00:57.721Z,72.38
2018-12-08T02:01:57.731Z,72.00
2018-12-08T02:02:57.742Z,71.81
2018-12-08T02:03:57.768Z,72.06
2018-12-08T02:04:57.782Z,73.21
2018-12-08T02:05:57.804Z,72.63
2018-12-08T02:06:57.824Z,72.67
2018-12-08T02:07:57.819Z,73.01
2018-12-08T02:08:57.883Z,74.06
2018-12-08T02:09:57.861Z,74.92
2018-12-08T02:10:57.956Z,74.25
2018-12-08T02:11:57.890Z,73.96
2018-12-08T02:12:57.903Z,73.58
2018-12-08T02:13:57.916Z,73.43
2018-12-08T02:14:57.933Z,73.49
2018-12-08T02:15:57.950Z,73.77
2018-12-08T02:16:57.964Z,72.96
2018-12-08T02:17:57.978Z,72.92
2018-12-08T02:18:57.999Z,72.19
2018-12-08T02:19:58.017Z,72.53
2018-12-08T02:20:58.029Z,73.39
2018-12-08T02:21:58.056Z,73.62
2018-12-08T02:22:58.057Z,73.39
2018-12-08T02:23:58.092Z,73.11
2018-12-08T02:24:58.087Z,74.16
2018-12-08T02:25:58.106Z,73.87
2018-12-08T02:26:58.122Z,72.67
2018-12-08T02:27:58.134Z,73.39
2018-12-08T02:28:58.156Z,74.12
2018-12-08T02:29:58.166Z,74.44
2018-12-08T02:30:58.193Z,73.77
2018-12-08T02:32:58.235Z,72.53
2018-12-08T02:33:58.232Z,72.53
2018-12-08T02:34:58.244Z,73.11
2018-12-08T02:35:58.262Z,71.91
2018-12-08T02:36:58.280Z,71.23
2018-12-08T02:37:58.294Z,71.77
2018-12-08T02:38:58.313Z,74.02
2018-12-08T02:39:58.324Z,74.16
2018-12-08T02:40:58.342Z,74.12
2018-12-08T02:41:58.359Z,74.40
2018-12-08T02:42:58.372Z,74.16
2018-12-08T02:43:58.395Z,73.93
2018-12-08T02:44:58.406Z,74.40
2018-12-08T02:45:58.426Z,74.60
2018-12-08T02:46:58.439Z,74.21
2018-12-08T02:48:58.461Z,73.58
2018-12-08T02:49:58.495Z,74.35
2018-12-08T02:50:58.493Z,74.50
2018-12-08T02:51:58.524Z,74.79
2018-12-08T02:52:58.539Z,74.60
2018-12-08T02:53:58.546Z,74.79
2018-12-08T02:54:58.557Z,74.69
2018-12-08T02:55:58.585Z,73.30
2018-12-08T02:56:58.589Z,72.82
2018-12-08T02:57:58.623Z,73.30
2018-12-08T02:58:58.621Z,73.21
2018-12-08T02:59:58.640Z,73.30
2018-12-08T03:00:58.647Z,73.55
2018-12-08T03:01:58.672Z,74.06
2018-12-08T03:02:58.683Z,71.68
2018-12-08T03:03:58.702Z,72.25
2018-12-08T03:04:58.713Z,71.68
2018-12-08T03:06:58.859Z,73.55
2018-12-08T03:07:58.760Z,73.21
2018-12-08T03:09:58.789Z,73.07
2018-12-08T03:10:58.810Z,73.17
2018-12-08T03:11:58.836Z,72.92
2018-12-08T03:13:58.860Z,71.62
2018-12-08T03:14:58.868Z,70.72
2018-12-08T03:15:58.899Z,71.48
2018-12-08T03:16:58.907Z,72.97
2018-12-08T03:17:58.916Z,74.37
2018-12-08T03:18:58.933Z,73.55
2018-12-08T03:19:58.958Z,74.40
2018-12-08T03:20:58.966Z,74.12
2018-12-08T03:21:58.981Z,74.12
2018-12-08T03:22:58.995Z,74.02
2018-12-08T03:23:59.020Z,75.26
2018-12-08T03:24:59.033Z,75.45
2018-12-08T03:25:59.062Z,76.31
2018-12-08T03:28:59.094Z,74.69
2018-12-08T03:29:59.111Z,75.16
2018-12-08T03:30:59.121Z,75.55
2018-12-08T03:31:59.135Z,74.98
2018-12-08T03:32:59.157Z,74.98
2018-12-08T03:33:59.174Z,74.02
2018-12-08T03:35:59.198Z,74.31
2018-12-08T03:36:59.209Z,74.25
2018-12-08T03:37:59.237Z,73.96
2018-12-08T03:38:59.250Z,74.40
2018-12-08T03:39:59.259Z,73.74
2018-12-08T03:40:59.273Z,73.65
2018-12-08T03:41:59.307Z,73.93
2018-12-08T03:42:59.303Z,73.93
2018-12-08T03:43:59.317Z,73.17
2018-12-08T03:44:59.333Z,72.82
2018-12-08T03:45:59.362Z,72.16
2018-12-08T03:46:59.362Z,71.48
2018-12-08T03:47:59.376Z,71.64
2018-12-08T03:48:59.392Z,73.17
2018-12-08T03:49:59.442Z,72.82
2018-12-08T03:50:59.436Z,73.45
2018-12-08T03:51:59.537Z,73.89
2018-12-08T03:52:59.460Z,74.60
2018-12-08T03:53:59.473Z,73.07
2018-12-08T03:54:59.490Z,73.36
2018-12-08T03:55:59.509Z,74.12
2018-12-08T03:56:59.522Z,74.98
2018-12-08T03:58:59.548Z,75.07
2018-12-08T03:59:59.576Z,74.40
2018-12-08T04:00:59.581Z,74.69
2018-12-08T04:01:59.596Z,75.26
2018-12-08T04:02:59.696Z,75.26
2018-12-08T04:03:59.629Z,74.88
2018-12-08T04:04:59.640Z,73.77
2018-12-08T04:05:59.652Z,73.74
2018-12-08T04:06:59.682Z,74.40
2018-12-08T04:07:59.711Z,74.21
2018-12-08T04:08:59.720Z,74.40
2018-12-08T04:09:59.734Z,74.40
2018-12-08T04:10:59.734Z,73.83
2018-12-08T04:11:59.755Z,73.87
2018-12-08T04:12:59.767Z,74.02
2018-12-08T04:13:59.782Z,74.31
2018-12-08T04:14:59.790Z,74.63
2018-12-08T04:15:59.809Z,73.77
2018-12-08T04:16:59.828Z,74.12
2018-12-08T04:17:59.841Z,74.40
2018-12-08T04:18:59.868Z,74.40
2018-12-08T04:19:59.868Z,74.82
2018-12-08T04:20:59.887Z,74.40
2018-12-08T04:21:59.902Z,74.60
2018-12-08T04:22:59.914Z,73.30
2018-12-08T04:23:59.929Z,73.07
2018-12-08T04:24:59.944Z,73.93
2018-12-08T04:25:59.962Z,74.44
2018-12-08T04:26:59.984Z,74.40
2018-12-08T04:27:59.996Z,74.60
2018-12-08T04:30:00.045Z,74.98
2018-12-08T04:31:00.064Z,74.50
2018-12-08T04:32:00.054Z,74.92
2018-12-08T04:33:00.155Z,73.65
2018-12-08T04:34:00.103Z,73.30
2018-12-08T04:35:00.102Z,72.50
2018-12-08T04:36:00.156Z,73.65
2018-12-08T04:37:00.160Z,73.49
2018-12-08T04:38:21.167Z,73.07
2018-12-08T04:39:00.161Z,73.80
2018-12-08T04:40:00.176Z,74.46
2018-12-08T04:41:00.189Z,74.98
2018-12-08T04:42:00.207Z,74.50
2018-12-08T04:43:00.226Z,74.35
2018-12-08T04:44:00.233Z,73.39
2018-12-08T04:45:00.252Z,73.30
2018-12-08T04:46:00.272Z,73.11
2018-12-08T04:47:00.280Z,73.65
2018-12-08T04:48:00.377Z,74.88
2018-12-08T04:49:00.315Z,74.98
2018-12-08T04:50:00.402Z,75.79
2018-12-08T04:51:00.346Z,76.27
2018-12-08T04:52:00.370Z,76.08
2018-12-08T04:53:00.373Z,75.45
2018-12-08T04:54:00.388Z,74.69
2018-12-08T04:55:00.406Z,74.73
2018-12-08T04:56:00.421Z,73.77
2018-12-08T04:57:00.441Z,73.58
2018-12-08T04:58:00.456Z,73.55
2018-12-08T04:59:00.471Z,74.06
2018-12-08T05:00:00.489Z,74.06
2018-12-08T05:01:00.496Z,74.02
2018-12-08T05:02:00.519Z,74.88
2018-12-08T05:03:00.534Z,74.69
2018-12-08T05:04:00.542Z,73.96
2018-12-08T05:05:00.565Z,73.49
2018-12-08T05:06:00.575Z,73.21
2018-12-08T05:07:00.595Z,73.26
2018-12-08T05:08:00.611Z,74.40
2018-12-08T05:09:00.745Z,73.55
2018-12-08T05:10:00.640Z,73.07
2018-12-08T05:11:00.650Z,74.37
2018-12-08T05:12:00.688Z,74.79
2018-12-08T05:13:00.683Z,73.74
2018-12-08T05:14:00.698Z,73.83
2018-12-08T05:15:00.715Z,74.12
2018-12-08T05:16:00.727Z,73.65
2018-12-08T05:17:00.746Z,74.46
2018-12-08T05:18:00.910Z,75.32
2018-12-08T05:19:00.774Z,74.65
2018-12-08T05:20:00.790Z,75.23
2018-12-08T05:21:00.803Z,75.42
2018-12-08T05:22:00.835Z,75.04
2018-12-08T05:23:00.838Z,75.23
2018-12-08T05:24:00.855Z,76.03
2018-12-08T05:25:00.866Z,75.45
2018-12-08T05:26:00.885Z,75.16
2018-12-08T05:27:00.901Z,75.42
2018-12-08T05:28:00.914Z,76.31
2018-12-08T05:29:00.927Z,74.40
2018-12-08T05:30:00.944Z,75.32
2018-12-08T05:31:00.980Z,75.89
2018-12-08T05:32:00.976Z,75.93
2018-12-08T05:33:01.026Z,74.69
2018-12-08T05:34:01.007Z,73.65
2018-12-08T05:35:01.091Z,73.93
2018-12-08T05:36:01.042Z,73.93
2018-12-08T05:37:01.070Z,74.12
2018-12-08T05:38:01.065Z,74.02
2018-12-08T05:39:01.082Z,74.21
2018-12-08T05:40:01.099Z,74.69
2018-12-08T05:41:01.122Z,74.02
2018-12-08T05:42:01.129Z,74.31
2018-12-08T05:43:01.146Z,74.31
2018-12-08T05:44:01.168Z,74.21
2018-12-08T05:45:01.170Z,73.36
2018-12-08T05:46:01.315Z,73.21
2018-12-08T05:47:01.210Z,73.36
2018-12-08T05:48:01.225Z,73.01
2018-12-08T05:49:01.236Z,73.07
2018-12-08T05:50:01.251Z,73.26
2018-12-08T05:51:01.270Z,73.26
2018-12-08T05:52:01.287Z,74.02
2018-12-08T05:53:01.334Z,73.26
2018-12-08T05:54:01.310Z,73.83
2018-12-08T05:55:01.336Z,74.50
2018-12-08T05:56:01.347Z,74.37
2018-12-08T05:57:01.361Z,74.27
2018-12-08T05:58:01.370Z,74.88
2018-12-08T05:59:01.386Z,72.97
2018-12-08T06:00:01.400Z,73.45
2018-12-08T06:01:01.426Z,74.02
2018-12-08T06:02:01.439Z,74.02
2018-12-08T06:03:01.528Z,74.27
2018-12-08T06:04:01.462Z,74.56
2018-12-08T06:05:01.476Z,74.60
2018-12-08T06:06:01.500Z,73.83
2018-12-08T06:07:01.522Z,73.45
2018-12-08T06:08:01.524Z,74.46
2018-12-08T06:09:01.536Z,73.26
2018-12-08T06:10:01.556Z,73.26
2018-12-08T06:11:01.576Z,73.51
2018-12-08T06:12:01.591Z,73.41
2018-12-08T06:13:01.599Z,74.50
2018-12-08T06:14:01.623Z,73.36
2018-12-08T06:15:01.639Z,73.22
2018-12-08T06:16:01.643Z,74.56
2018-12-08T06:17:01.669Z,74.40
2018-12-08T06:18:01.683Z,74.46
2018-12-08T06:19:01.689Z,74.50
2018-12-08T06:20:01.746Z,74.12
2018-12-08T06:21:01.723Z,74.46
2018-12-08T06:22:01.737Z,74.46
2018-12-08T06:23:01.752Z,75.32
2018-12-08T06:24:01.771Z,75.36
2018-12-08T06:25:01.784Z,74.50
2018-12-08T06:26:01.800Z,74.02
2018-12-08T06:27:01.809Z,74.21
2018-12-08T06:28:01.831Z,73.55
2018-12-08T06:29:01.871Z,73.26
2018-12-08T06:30:01.892Z,73.41
2018-12-08T06:31:02.065Z,73.45
2018-12-08T06:32:01.889Z,73.74
2018-12-08T06:33:01.899Z,73.83
2018-12-08T06:35:01.937Z,73.51
2018-12-08T06:36:01.947Z,73.51
2018-12-08T06:37:01.971Z,73.26
2018-12-08T06:38:01.981Z,72.97
2018-12-08T06:39:02.008Z,73.51
2018-12-08T06:40:02.011Z,73.80
2018-12-08T06:41:02.028Z,73.26
2018-12-08T06:42:02.047Z,73.55
2018-12-08T06:43:02.056Z,72.41
2018-12-08T06:44:02.231Z,72.85
2018-12-08T06:45:02.082Z,72.94
2018-12-08T06:46:02.173Z,74.08
2018-12-08T06:47:02.114Z,73.36
2018-12-08T06:48:02.214Z,72.94
2018-12-08T06:49:02.146Z,72.50
2018-12-08T06:50:02.168Z,72.41
2018-12-08T06:51:02.174Z,72.85
2018-12-08T06:52:02.280Z,73.99
2018-12-08T06:53:02.214Z,74.46
2018-12-08T06:54:02.309Z,74.08
2018-12-08T06:55:02.237Z,73.13
2018-12-08T06:56:02.252Z,72.50
2018-12-08T06:57:02.271Z,71.83
2018-12-08T06:58:02.288Z,71.64
2018-12-08T06:59:02.397Z,72.56
2018-12-08T07:00:02.313Z,73.51
2018-12-08T07:01:02.325Z,74.46
2018-12-08T07:02:02.335Z,73.80
2018-12-08T07:03:02.352Z,73.80
2018-12-08T07:04:02.376Z,73.55
2018-12-08T07:05:02.400Z,73.55
2018-12-08T07:06:02.397Z,74.27
2018-12-08T07:07:02.412Z,74.84
2018-12-08T07:08:02.447Z,73.65
2018-12-08T07:09:02.443Z,73.45
2018-12-08T07:10:02.464Z,73.89
2018-12-08T07:11:02.479Z,73.65
2018-12-08T07:12:02.493Z,73.55
2018-12-08T07:13:02.504Z,73.51
2018-12-08T07:14:02.528Z,74.02
2018-12-08T07:15:02.618Z,73.55
2018-12-08T07:17:02.574Z,75.23
2018-12-08T07:18:02.577Z,74.94
2018-12-08T07:19:02.605Z,74.12
2018-12-08T07:20:02.612Z,74.65
2018-12-08T07:21:02.619Z,74.88
2018-12-08T07:22:02.645Z,74.27
2018-12-08T07:23:02.673Z,73.99
2018-12-08T07:24:02.674Z,74.84
2018-12-08T07:25:02.682Z,74.46
2018-12-08T07:26:02.700Z,74.75
2018-12-08T07:27:02.715Z,75.13
2018-12-08T07:28:02.732Z,75.42
2018-12-08T07:29:02.844Z,75.32
2018-12-08T07:31:02.775Z,74.12
2018-12-08T07:32:02.792Z,73.93
2018-12-08T07:33:02.852Z,74.08
2018-12-08T07:34:02.822Z,74.75
2018-12-08T07:35:02.836Z,74.46
2018-12-08T07:36:02.847Z,74.46
2018-12-08T07:37:02.873Z,74.18
2018-12-08T07:38:02.872Z,74.40
2018-12-08T07:39:02.888Z,73.45
2018-12-08T07:40:02.922Z,74.18
2018-12-08T07:41:02.934Z,74.37
2018-12-08T07:42:02.938Z,74.31
2018-12-08T07:43:02.956Z,74.37
2018-12-08T07:44:03.044Z,75.26
2018-12-08T07:45:02.989Z,75.04
2018-12-08T07:46:03.090Z,74.40
2018-12-08T07:47:03.016Z,74.94
2018-12-08T07:48:03.031Z,76.08
2018-12-08T07:49:03.043Z,75.16
2018-12-08T07:50:03.054Z,74.40
2018-12-08T07:51:03.072Z,74.75
2018-12-08T07:52:03.090Z,75.32
2018-12-08T07:53:04.416Z,75.16
2018-12-08T07:54:03.115Z,74.88
2018-12-08T07:55:03.126Z,76.08
2018-12-08T07:56:03.143Z,75.32
2018-12-08T07:57:03.153Z,75.79
2018-12-08T07:58:03.180Z,76.27
2018-12-08T07:59:03.195Z,76.75
2018-12-08T08:00:04.627Z,76.56
2018-12-08T08:01:03.224Z,76.75
2018-12-08T08:02:03.242Z,77.89
2018-12-08T08:03:03.246Z,76.75
2018-12-08T08:04:03.267Z,76.56
2018-12-08T08:05:03.283Z,77.22
2018-12-08T08:06:03.295Z,77.61
2018-12-08T08:07:03.307Z,76.65
2018-12-08T08:08:03.326Z,76.56
2018-12-08T08:09:03.348Z,76.79
2018-12-08T08:10:03.364Z,76.21
2018-12-08T08:11:03.370Z,75.16
2018-12-08T08:12:03.392Z,75.89
2018-12-08T08:13:03.412Z,77.51
2018-12-08T08:14:03.539Z,76.12
2018-12-08T08:15:03.428Z,75.45
2018-12-08T08:16:03.440Z,75.93
2018-12-08T08:17:03.458Z,76.94
2018-12-08T08:18:03.492Z,78.75
2018-12-08T08:19:03.485Z,78.03
2018-12-08T08:20:03.498Z,78.59
2018-12-08T08:21:03.518Z,78.22
2018-12-08T08:22:03.532Z,78.12
2018-12-08T08:23:03.551Z,78.22
2018-12-08T08:24:03.637Z,78.69
2018-12-08T08:25:03.581Z,78.12
2018-12-08T08:26:03.586Z,79.22
2018-12-08T08:27:03.607Z,78.69
2018-12-08T08:28:03.621Z,79.07
2018-12-08T08:29:03.632Z,78.88
2018-12-08T08:30:03.649Z,79.55
2018-12-08T08:31:03.758Z,80.94
2018-12-08T08:32:03.675Z,81.51
2018-12-08T08:33:03.693Z,80.90
2018-12-08T08:34:03.709Z,82.27
2018-12-08T08:35:03.748Z,82.27
2018-12-08T08:36:03.739Z,82.80
2018-12-08T08:38:03.773Z,82.65
2018-12-08T08:39:03.783Z,80.94
2018-12-08T08:40:03.807Z,81.89
2018-12-08T08:41:03.827Z,81.98
2018-12-08T08:42:03.857Z,81.85
2018-12-08T08:43:03.843Z,82.08
2018-12-08T08:44:03.857Z,80.94
2018-12-08T08:45:03.875Z,81.66
2018-12-08T08:46:03.890Z,81.28
2018-12-08T08:47:03.915Z,81.76
2018-12-08T08:48:03.995Z,81.89
2018-12-08T08:49:03.931Z,81.51
2018-12-08T08:50:05.112Z,81.41
2018-12-08T08:51:03.963Z,81.41
2018-12-08T08:52:03.986Z,81.23
2018-12-08T08:53:03.993Z,81.32
2018-12-08T08:54:04.013Z,81.09
2018-12-08T08:55:04.016Z,81.41
2018-12-08T08:56:04.049Z,79.51
2018-12-08T08:58:04.097Z,79.13
2018-12-08T09:00:04.107Z,79.60
2018-12-08T09:01:04.113Z,79.89
2018-12-08T09:02:04.128Z,80.46
2018-12-08T09:03:04.159Z,80.27
2018-12-08T09:04:04.165Z,80.55
2018-12-08T09:05:04.186Z,79.32
2018-12-08T09:06:04.189Z,81.32
2018-12-08T09:07:04.205Z,80.36
2018-12-08T09:08:04.241Z,79.89
2018-12-08T09:09:04.242Z,81.03
2018-12-08T09:10:04.253Z,81.03
2018-12-08T09:11:04.266Z,79.80
2018-12-08T09:12:04.310Z,79.03
2018-12-08T09:13:04.303Z,78.31
2018-12-08T09:14:04.318Z,78.78
2018-12-08T09:15:04.335Z,79.17
2018-12-08T09:16:04.366Z,78.65
2018-12-08T09:17:04.347Z,79.13
2018-12-08T09:19:04.380Z,79.41
2018-12-08T09:20:04.393Z,80.65
2018-12-08T09:21:04.403Z,81.23
2018-12-08T09:22:04.424Z,80.31
2018-12-08T09:23:04.437Z,79.41
2018-12-08T09:24:04.455Z,79.51
2018-12-08T09:25:04.468Z,80.27
2018-12-08T09:26:04.486Z,80.55
2018-12-08T09:27:04.598Z,79.93
2018-12-08T09:28:04.526Z,78.98
2018-12-08T09:29:04.540Z,79.32
2018-12-08T09:30:04.548Z,79.17
2018-12-08T09:31:04.571Z,79.07
2018-12-08T09:32:04.572Z,79.32
2018-12-08T09:33:04.587Z,79.83
2018-12-08T09:34:04.601Z,79.46
2018-12-08T09:35:04.621Z,79.07
2018-12-08T09:36:04.641Z,80.36
2018-12-08T09:37:04.659Z,80.84
2018-12-08T09:38:04.667Z,81.46
2018-12-08T09:40:04.694Z,81.51
2018-12-08T09:41:04.725Z,80.94
2018-12-08T09:42:04.720Z,81.89
2018-12-08T09:43:04.743Z,82.08
2018-12-08T09:45:04.771Z,83.61
2018-12-08T09:46:04.785Z,83.45
2018-12-08T09:47:04.795Z,82.65
2018-12-08T09:48:04.819Z,83.32
2018-12-08T09:49:04.838Z,83.41
2018-12-08T09:50:04.841Z,83.98
2018-12-08T09:51:04.952Z,84.08
2018-12-08T09:52:04.878Z,84.65
2018-12-08T09:53:04.912Z,83.55
2018-12-08T09:54:04.916Z,82.79
2018-12-08T09:55:04.936Z,82.75
2018-12-08T09:56:04.937Z,83.80
2018-12-08T09:57:04.968Z,84.94
2018-12-08T09:58:04.966Z,84.94
2018-12-08T09:59:04.999Z,85.03
2018-12-08T10:00:04.990Z,85.08
2018-12-08T10:01:05.064Z,85.60
2018-12-08T10:02:05.040Z,85.99
2018-12-08T10:03:05.045Z,86.18
2018-12-08T10:04:05.063Z,86.18
2018-12-08T10:05:05.076Z,85.70
2018-12-08T10:06:05.102Z,84.75
2018-12-08T10:07:05.104Z,86.08
2018-12-08T10:08:05.117Z,86.75
2018-12-08T10:09:05.146Z,87.37
2018-12-08T10:10:05.153Z,88.23
2018-12-08T10:12:05.186Z,88.37
2018-12-08T10:13:05.186Z,87.27
2018-12-08T10:14:05.208Z,86.75
2018-12-08T10:15:05.218Z,86.27
2018-12-08T10:16:05.238Z,86.18
2018-12-08T10:17:05.249Z,87.13
2018-12-08T10:18:05.262Z,88.27
2018-12-08T10:19:05.278Z,87.79
2018-12-08T10:20:05.296Z,88.84
2018-12-08T10:21:05.343Z,87.36
2018-12-08T10:22:05.334Z,87.41
2018-12-08T10:23:05.334Z,87.13
2018-12-08T10:24:05.348Z,87.70
2018-12-08T10:25:05.364Z,88.65
2018-12-08T10:26:05.379Z,89.13
2018-12-08T10:27:05.412Z,88.08
2018-12-08T10:28:05.413Z,87.89
2018-12-08T10:30:05.435Z,87.98
2018-12-08T10:31:05.461Z,89.03
2018-12-08T10:32:05.470Z,88.46
2018-12-08T10:33:05.481Z,88.27
2018-12-08T10:34:05.503Z,87.98
2018-12-08T10:35:05.522Z,86.12
2018-12-08T10:36:05.539Z,85.89
2018-12-08T10:37:05.556Z,86.03
2018-12-08T10:38:05.567Z,87.03
2018-12-08T10:39:05.572Z,87.51
2018-12-08T10:40:05.697Z,88.46
2018-12-08T10:41:05.604Z,88.75
2018-12-08T10:42:05.622Z,88.84
2018-12-08T10:44:05.653Z,90.17
2018-12-08T10:45:05.659Z,90.36
2018-12-08T10:46:05.680Z,89.98
2018-12-08T10:47:05.714Z,89.70
2018-12-08T10:48:05.715Z,87.79
2018-12-08T10:49:05.726Z,87.70
2018-12-08T10:50:05.739Z,88.56
2018-12-08T10:51:05.753Z,89.32
2018-12-08T10:52:05.787Z,87.41
2018-12-08T10:53:05.783Z,87.36
2018-12-08T10:54:05.807Z,86.94
2018-12-08T10:55:05.841Z,86.41
2018-12-08T10:56:05.839Z,86.12
2018-12-08T10:57:05.856Z,86.65
2018-12-08T10:58:05.865Z,85.60
2018-12-08T10:59:05.870Z,87.13
2018-12-08T11:00:05.897Z,87.41
2018-12-08T11:01:05.915Z,86.75
2018-12-08T11:02:05.914Z,87.23
2018-12-08T11:03:05.938Z,88.08
2018-12-08T11:04:05.944Z,87.03
2018-12-08T11:05:05.961Z,87.60
2018-12-08T11:06:05.981Z,87.13
2018-12-08T11:07:05.991Z,87.60
2018-12-08T11:08:06.008Z,88.37
2018-12-08T11:09:06.040Z,88.27
2018-12-08T11:10:06.189Z,89.22
2018-12-08T11:11:06.080Z,89.79
2018-12-08T11:12:06.074Z,89.79
2018-12-08T11:13:06.077Z,88.46
2018-12-08T11:15:06.117Z,89.98
2018-12-08T11:16:06.131Z,90.56
2018-12-08T11:18:06.156Z,91.08
2018-12-08T11:19:06.169Z,90.89
2018-12-08T11:20:06.192Z,90.17
2018-12-08T11:21:06.226Z,89.79
2018-12-08T11:22:06.230Z,89.89
2018-12-08T11:23:06.239Z,89.89
2018-12-08T11:24:06.426Z,89.51
2018-12-08T11:25:06.329Z,88.31
2018-12-08T11:26:06.291Z,87.60
2018-12-08T11:27:06.409Z,88.37
2018-12-08T11:28:06.310Z,88.56
2018-12-08T11:29:06.320Z,89.70
2018-12-08T11:30:06.343Z,90.17
2018-12-08T11:31:06.353Z,90.56
2018-12-08T11:32:06.376Z,91.13
2018-12-08T11:33:06.419Z,90.84
2018-12-08T11:35:06.409Z,90.17
2018-12-08T11:36:06.426Z,89.89
2018-12-08T11:37:06.438Z,90.56
2018-12-08T11:38:06.460Z,91.13
2018-12-08T11:39:06.485Z,89.98
2018-12-08T11:40:06.498Z,90.75
2018-12-08T11:41:06.523Z,90.94
2018-12-08T11:42:06.509Z,90.75
2018-12-08T11:43:06.530Z,92.03
2018-12-08T11:44:06.549Z,91.74
2018-12-08T11:45:06.606Z,89.51
2018-12-08T11:46:06.605Z,89.98
2018-12-08T11:47:06.607Z,90.22
2018-12-08T11:48:06.609Z,90.27
2018-12-08T11:49:06.619Z,91.03
2018-12-08T11:50:06.641Z,89.79
2018-12-08T11:51:27.679Z,90.17
2018-12-08T11:52:06.664Z,91.70
2018-12-08T11:53:06.677Z,91.70
2018-12-08T11:54:06.700Z,91.31
2018-12-08T11:55:06.857Z,91.60
2018-12-08T11:56:06.726Z,91.79
2018-12-08T11:57:06.741Z,91.41
2018-12-08T11:58:06.752Z,91.36
2018-12-08T11:59:06.769Z,91.03
2018-12-08T12:00:06.790Z,91.08
2018-12-08T12:01:06.817Z,91.03
2018-12-08T12:02:06.818Z,91.51
2018-12-08T12:03:06.829Z,91.79
2018-12-08T12:04:06.868Z,91.60
2018-12-08T12:05:06.878Z,91.41
2018-12-08T12:06:06.880Z,91.89
2018-12-08T12:07:06.891Z,92.46
2018-12-08T12:08:06.910Z,91.89
2018-12-08T12:09:06.914Z,91.79
2018-12-08T12:10:06.933Z,91.60
2018-12-08T12:11:06.962Z,91.60
2018-12-08T12:12:07.037Z,91.60
2018-12-08T12:13:06.998Z,91.70
2018-12-08T12:14:07.000Z,91.89
2018-12-08T12:15:07.029Z,91.89
2018-12-08T12:16:07.022Z,91.51
2018-12-08T12:17:07.036Z,92.46
2018-12-08T12:18:07.089Z,92.08
2018-12-08T12:19:07.066Z,91.89
2018-12-08T12:20:07.091Z,91.17
2018-12-08T12:21:07.109Z,91.46
2018-12-08T12:22:07.115Z,91.60
2018-12-08T12:23:07.125Z,92.27
2018-12-08T12:24:07.161Z,92.27
2018-12-08T12:25:07.158Z,90.70
2018-12-08T12:26:07.196Z,91.60
2018-12-08T12:27:07.197Z,92.08
2018-12-08T12:28:07.211Z,91.74
2018-12-08T12:29:07.236Z,91.89
2018-12-08T12:30:07.234Z,92.84
2018-12-08T12:31:07.280Z,92.94
2018-12-08T12:32:07.279Z,92.94
2018-12-08T12:33:07.283Z,91.94
2018-12-08T12:34:07.307Z,92.65
2018-12-08T12:35:07.310Z,93.79
2018-12-08T12:36:07.336Z,93.70
2018-12-08T12:37:07.357Z,93.70
2018-12-08T12:38:07.366Z,92.84
2018-12-08T12:39:07.381Z,92.74
2018-12-08T12:40:07.537Z,93.89
2018-12-08T12:41:07.400Z,93.03
2018-12-08T12:42:07.433Z,91.99
2018-12-08T12:43:07.458Z,92.84
2018-12-08T12:44:07.446Z,92.84
2018-12-08T12:45:07.467Z,94.17
2018-12-08T12:46:07.484Z,93.70
2018-12-08T12:47:07.495Z,93.08
2018-12-08T12:48:07.508Z,92.03
2018-12-08T12:49:07.527Z,92.84
2018-12-08T12:50:07.555Z,92.89
2018-12-08T12:51:07.548Z,92.50
2018-12-08T12:52:07.567Z,93.27
2018-12-08T12:54:07.604Z,93.89
2018-12-08T12:55:07.632Z,92.32
2018-12-08T12:56:07.630Z,92.94
2018-12-08T12:57:07.649Z,94.65
2018-12-08T12:58:07.668Z,94.65
2018-12-08T12:59:07.672Z,95.22
2018-12-08T13:00:07.687Z,94.51
2018-12-08T13:02:07.730Z,93.79
2018-12-08T13:03:07.750Z,93.51
2018-12-08T13:04:07.757Z,93.79
2018-12-08T13:05:07.774Z,93.84
2018-12-08T13:06:07.774Z,92.60
2018-12-08T13:07:07.791Z,92.55
2018-12-08T13:08:07.931Z,93.03
2018-12-08T13:09:07.820Z,94.27
2018-12-08T13:10:07.843Z,95.32
2018-12-08T13:11:07.850Z,95.22
2018-12-08T13:12:07.865Z,94.46
2018-12-08T13:13:07.885Z,94.46
2018-12-08T13:14:07.917Z,95.22
2018-12-08T13:15:07.928Z,95.32
2018-12-08T13:16:07.934Z,94.79
2018-12-08T13:17:07.952Z,93.98
2018-12-08T13:19:07.986Z,94.03
2018-12-08T13:20:07.999Z,94.93
2018-12-08T13:21:08.005Z,95.03
2018-12-08T13:22:08.022Z,93.79
2018-12-08T13:23:08.035Z,94.37
2018-12-08T13:24:08.058Z,94.65
2018-12-08T13:25:08.126Z,95.89